Latest Weather Observations for Ferny Creek

IDV60901

Issued at 12:51 pm EST Thursday 26 May 2016 (issued every 10 minutes, with the page automatically refreshed every 10 minutes)

About weather observations | Map of Melbourne area stations | Latest observations for Melbourne area | Other Formats
Station Details ID: 086266 Name: FERNY CREEK Lat: -37.87 Lon: 145.35 Height: 512.9 m
Data from the previous 72 hours. | See also: Recent months at Ferny Creek
Date/Time
EST
Tmp

°C
App
Tmp
°C
Dew
Point
°C
Rel
Hum
%
Delta-T

°C
Wind Press
QNH
hPa
Press
MSL
hPa
Rain
since
9 am
mm
Dir
 
Spd
km/h
Gust
km/h
Spd
kts
Gust
kts
26/12:30pm 8.2 6.6 7.8 97 0.2 W 6 19 3 10 1001.9 1001.9 11.6
26/12:00pm 8.0 7.1 7.6 97 0.2 W 2 6 1 3 1002.1 1002.1 10.2
26/11:30am 7.7 6.3 7.3 97 0.2 NW 4 9 2 5 1002.5 1002.4 8.4
26/11:00am 7.6 6.2 7.2 97 0.2 WNW 4 7 2 4 1002.8 1002.7 6.8
26/10:30am 7.5 5.7 7.1 97 0.2 NW 6 13 3 7 1002.9 1002.8 5.8
26/10:00am 7.4 5.6 7.0 97 0.2 NW 6 13 3 7 1003.0 1002.9 4.6
26/09:30am 7.3 5.4 6.7 96 0.3 NW 6 11 3 6 1003.1 1003.0 2.0
26/09:00am 7.3 5.2 6.7 96 0.3 NW 7 15 4 8 1003.1 1003.0 15.6
26/08:30am 7.2 5.7 6.6 96 0.3 NNW 4 7 2 4 1003.0 1002.9 14.2
26/08:00am 7.2 5.3 6.5 95 0.3 NNW 6 13 3 7 1003.0 1002.9 13.2
26/07:30am 7.2 5.6 6.5 95 0.3 NNW 4 13 2 7 1003.0 1002.9 12.6
26/07:00am 7.1 5.1 6.4 95 0.3 N 6 13 3 7 1003.1 1003.0 12.4
26/06:30am 7.1 5.1 6.4 95 0.3 N 6 13 3 7 1003.3 1003.2 12.4
26/06:00am 7.1 5.1 6.4 95 0.3 N 6 11 3 6 1003.5 1003.5 12.2
26/05:30am 7.1 5.1 6.4 95 0.3 NNW 6 11 3 6 1003.6 1003.6 12.2
26/05:00am 7.1 4.9 6.4 95 0.3 N 7 28 4 15 1004.0 1004.0 12.0
26/04:30am 7.2 5.0 6.3 94 0.4 N 7 17 4 9 1003.9 1003.9 12.0
26/04:00am 7.3 5.3 6.4 94 0.4 N 6 11 3 6 1004.2 1004.2 11.8
26/03:30am 7.3 4.8 6.4 94 0.4 N 9 22 5 12 1004.5 1004.4 11.8
26/03:00am 7.3 4.8 6.4 94 0.4 N 9 22 5 12 1004.6 1004.5 11.8
26/02:30am 7.5 4.6 6.6 94 0.4 N 11 24 6 13 1005.3 1005.3 11.4
26/02:00am 7.6 5.1 6.7 94 0.4 N 9 20 5 11 1005.7 1005.7 11.4
26/01:30am 7.7 4.4 6.6 93 0.5 N 13 33 7 18 1005.6 1005.6 11.4
26/01:00am 7.6 4.3 6.5 93 0.5 N 13 35 7 19 1005.7 1005.7 11.2
26/12:30am 7.6 4.7 6.7 94 0.4 N 11 22 6 12 1006.1 1006.1 11.0
26/12:00am 7.5 4.7 6.8 95 0.3 N 11 26 6 14 1006.9 1006.9 10.4
 
Date/Time
EST
Tmp

°C
App
Tmp
°C
Dew
Point
°C
Rel
Hum
%
Delta-T

°C
Wind Press
QNH
hPa
Press
MSL
hPa
Rain
since
9 am
mm
Dir
 
Spd
km/h
Gust
km/h
Spd
kts
Gust
kts
25/11:30pm 7.6 4.7 6.7 94 0.4 N 11 22 6 12 1007.4 1007.4 9.0
25/11:00pm 7.8 5.0 6.9 94 0.4 N 11 24 6 13 1007.5 1007.5 7.2
25/10:30pm 8.0 4.9 7.1 94 0.4 N 13 26 7 14 1007.7 1007.7 6.0
25/10:00pm 8.1 5.4 7.2 94 0.4 N 11 24 6 13 1008.1 1008.1 5.6
25/09:30pm 8.3 5.2 7.4 94 0.4 N 13 33 7 18 1008.1 1008.1 5.0
25/09:00pm 8.2 5.8 7.1 93 0.5 N 9 24 5 13 1008.3 1008.4 3.6
25/08:30pm 8.7 5.8 6.7 87 1.0 N 11 24 6 13 1008.4 1008.5 2.6
25/08:00pm 8.6 5.7 6.4 86 1.0 N 11 30 6 16 1008.6 1008.6 2.6
25/07:30pm 8.9 6.0 6.3 84 1.2 N 11 22 6 12 1008.8 1008.8 2.6
25/07:00pm 8.7 5.5 6.7 87 1.0 N 13 33 7 18 1008.4 1008.5 2.6
25/06:30pm 8.6 5.7 6.7 88 0.9 N 11 24 6 13 1008.8 1008.8 2.6
25/06:00pm 9.0 6.2 7.1 88 0.9 N 11 26 6 14 1009.0 1009.0 2.2
25/05:30pm 8.9 5.8 7.4 90 0.7 N 13 30 7 16 1008.8 1008.8 2.2
25/05:00pm 8.9 5.9 7.5 91 0.7 N 13 35 7 19 1008.9 1008.9 2.2
25/04:30pm 8.8 5.0 7.4 91 0.7 NNE 17 37 9 20 1008.9 1008.9 2.0
25/04:00pm 8.9 5.0 7.2 89 0.8 NNE 17 35 9 19 1009.7 1009.7 1.4
25/03:30pm 9.1 5.6 7.1 87 1.0 NNE 15 37 8 20 1010.3 1010.4 0.8
25/03:00pm 9.8 6.9 6.7 81 1.5 N 11 22 6 12 1010.7 1010.7 0.0
25/02:30pm 10.8 8.3 6.4 74 2.1 N 9 19 5 10 1010.5 1010.6 0.0
25/02:00pm 11.2 8.6 6.3 72 2.4 N 9 20 5 11 1010.3 1010.4 0.0
25/01:30pm 11.2 8.3 6.7 74 2.2 N 11 24 6 13 1010.8 1010.8 0.0
25/01:00pm 10.9 8.0 6.6 75 2.1 N 11 28 6 15 1011.5 1011.5 0.0
25/12:30pm 10.5 7.6 6.5 76 1.9 N 11 22 6 12 1012.0 1012.1 0.0
25/12:00pm 10.5 7.9 6.3 75 2.0 N 9 20 5 11 1012.3 1012.4 0.0
25/11:30am 10.5 8.1 7.2 80 1.6 NNE 9 24 5 13 1013.2 1013.2 0.0
25/11:00am 10.0 7.7 7.3 83 1.3 NNE 9 17 5 9 1014.1 1014.2 0.0
25/10:30am 10.1 7.4 7.2 82 1.4 N 11 26 6 14 1014.4 1014.5 0.0
25/10:00am 10.7 8.8 7.4 80 1.6 N 7 22 4 12 1014.9 1014.9 0.0
25/09:30am 10.5 8.6 7.6 82 1.4 N 7 17 4 9 1014.6 1014.7 0.0
25/09:00am 8.9 6.3 6.3 84 1.2 N 9 22 5 12 1014.9 1014.9 0.2
25/08:30am 9.0 6.8 6.3 83 1.3 N 7 24 4 13 1015.2 1015.3 0.2
25/08:00am 8.9 6.3 6.2 83 1.3 N 9 26 5 14 1015.2 1015.3 0.2
25/07:30am 8.7 6.7 6.2 84 1.2 NNE 6 19 3 10 1015.4 1015.5 0.2
25/07:00am 8.4 6.7 6.0 85 1.1 N 4 13 2 7 1015.6 1015.7 0.0
25/06:30am 8.4 6.7 5.7 83 1.3 N 4 13 2 7 1015.6 1015.7 0.0
25/06:00am 8.2 6.0 5.1 81 1.4 N 6 13 3 7 1015.6 1015.7 0.0
25/05:30am 8.3 6.6 5.8 84 1.2 NNE 4 9 2 5 1015.8 1015.9 0.0
25/05:00am 8.3 6.5 5.6 83 1.3 N 4 11 2 6 1015.8 1015.9 0.0
25/04:30am 8.2 6.7 5.1 81 1.4 N 2 6 1 3 1016.0 1016.1 0.0
25/04:00am 8.5 6.7 5.3 80 1.5 N 4 9 2 5 1016.2 1016.3 0.0
25/03:30am 8.5 6.7 5.4 81 1.4 NNW 4 11 2 6 1016.5 1016.6 0.0
25/03:00am 8.5 6.7 5.3 80 1.5 NW 4 9 2 5 1016.5 1016.6 0.0
25/02:30am 8.4 6.6 5.2 80 1.5 NNW 4 9 2 5 1016.7 1016.9 0.0
25/02:00am 8.0 6.1 5.1 82 1.3 NW 4 9 2 5 1017.2 1017.3 0.0
25/01:30am 7.8 5.5 4.9 82 1.3 NW 6 11 3 6 1017.2 1017.3 0.0
25/01:00am 7.6 5.7 5.1 84 1.1 NW 4 6 2 3 1017.3 1017.4 0.0
25/12:30am 7.0 5.5 5.2 88 0.8 WNW 2 6 1 3 1017.8 1017.9 0.0
25/12:00am 6.8 5.7 5.0 88 0.8 CALM 0 0 0 0 1018.0 1018.1 0.0
 
Date/Time
EST
Tmp

°C
App
Tmp
°C
Dew
Point
°C
Rel
Hum
%
Delta-T

°C
Wind Press
QNH
hPa
Press
MSL
hPa
Rain
since
9 am
mm
Dir
 
Spd
km/h
Gust
km/h
Spd
kts
Gust
kts
24/11:30pm 6.4 4.9 4.9 90 0.7 WNW 2 2 1 1 1018.2 1018.3 0.0
24/11:00pm 6.4 4.8 4.7 89 0.8 NW 2 4 1 2 1018.1 1018.2 0.0
24/10:30pm 6.8 5.3 4.8 87 0.9 NNW 2 6 1 3 1018.4 1018.6 0.0
24/10:00pm 6.8 4.9 5.0 88 0.8 NW 4 7 2 4 1019.0 1019.1 0.0
24/09:30pm 6.7 4.8 5.0 89 0.8 WNW 4 6 2 3 1019.5 1019.6 0.0
24/09:00pm 6.4 4.8 4.7 89 0.8 WNW 2 2 1 1 1019.6 1019.7 0.0
24/08:30pm 6.4 5.3 4.9 90 0.7 CALM 0 0 0 0 1019.7 1019.8 0.0
24/08:00pm 6.3 5.1 4.8 90 0.7 CALM 0 0 0 0 1019.7 1019.8 0.0
24/07:30pm 6.4 5.2 4.6 88 0.8 CALM 0 0 0 0 1019.7 1019.8 0.0
24/07:00pm 6.5 5.3 4.7 88 0.8 CALM 0 0 0 0 1019.5 1019.6 0.0
24/06:30pm 6.5 5.3 4.5 87 0.9 CALM 0 0 0 0 1019.4 1019.5 0.0
24/06:00pm 6.9 5.7 4.7 86 1.0 CALM 0 0 0 0 1019.3 1019.4 0.0
24/05:30pm 7.4 6.3 4.9 84 1.1 CALM 0 0 0 0 1019.0 1019.1 0.0
24/05:00pm 8.8 7.4 5.4 79 1.6 SSW 2 6 1 3 1019.2 1019.3 0.0
24/04:30pm 9.8 7.6 5.2 73 2.1 WSW 6 11 3 6 1019.5 1019.6 0.0
24/04:00pm 9.9 9.0 6.1 77 1.8 CALM 0 2 0 1 1019.2 1019.3 0.0
24/03:30pm 10.1 8.7 5.5 73 2.2 WSW 2 7 1 4 1019.1 1019.2 0.0
24/03:00pm 10.3 8.6 6.1 75 2.0 WSW 4 9 2 5 1019.1 1019.2 0.0
24/02:30pm 10.5 9.3 6.6 77 1.9 WSW 2 4 1 2 1019.1 1019.2 0.0
24/02:00pm 10.3 8.3 6.1 75 2.0 W 6 20 3 11 1019.2 1019.3 0.0
24/01:30pm 10.6 9.5 6.7 77 1.9 WSW 2 9 1 5 1019.2 1019.3 0.0
24/01:00pm 10.5 9.1 7.2 80 1.6 W 4 13 2 7 1019.3 1019.4 0.0
24/12:30pm 10.5 9.4 8.3 86 1.1 WSW 4 9 2 5 1019.6 1019.7 0.0
24/12:00pm 10.1 9.4 8.4 89 0.9 WNW 2 7 1 4 1020.0 1020.2 0.0
24/11:30am 9.5 8.5 9.0 97 0.3 W 4 6 2 3 1020.4 1020.6 0.0
24/11:00am 8.8 7.7 8.4 97 0.2 WNW 4 7 2 4 1020.5 1020.7 0.0
24/10:30am 8.2 7.3 7.8 97 0.2 WNW 2 7 1 4 1020.6 1020.8 0.0
24/10:00am 8.3 7.5 8.0 98 0.1 WNW 2 6 1 3 1020.6 1020.8 0.0
24/09:30am 7.9 6.2 7.5 97 0.2 NW 6 13 3 7 1020.5 1020.7 0.0
24/09:00am 8.0 6.7 7.7 98 0.1 WNW 4 6 2 3 1020.6 1020.8 3.6
24/08:30am 7.8 6.8 7.5 98 0.1 W 2 6 1 3 1020.5 1020.7 3.6
24/08:00am 7.7 6.3 7.4 98 0.1 W 4 7 2 4 1020.2 1020.4 3.6
24/07:30am 7.5 6.4 7.1 97 0.2 WNW 2 6 1 3 1019.8 1019.9 3.6
24/07:00am 7.5 6.4 7.1 97 0.2 WNW 2 4 1 2 1019.5 1019.6 3.6
24/06:30am 7.5 6.4 7.1 97 0.2 WNW 2 7 1 4 1019.3 1019.4 3.6
24/06:00am 7.5 6.1 7.1 97 0.2 WNW 4 7 2 4 1019.1 1019.2 3.6
24/05:30am 7.5 6.1 7.1 97 0.2 WNW 4 7 2 4 1019.0 1019.1 3.6
24/05:00am 7.5 6.4 7.1 97 0.2 W 2 6 1 3 1019.1 1019.2 3.4
24/04:30am 7.6 6.6 7.2 97 0.2 W 2 6 1 3 1018.7 1018.9 3.4
24/04:00am 7.5 6.4 7.1 97 0.2 W 2 7 1 4 1018.4 1018.6 3.4
24/03:30am 7.5 6.4 7.1 97 0.2 WNW 2 7 1 4 1018.5 1018.7 2.8
24/03:00am 7.5 6.1 7.1 97 0.2 WNW 4 11 2 6 1018.7 1018.9 2.8
24/02:30am 7.5 6.4 7.1 97 0.2 WNW 2 9 1 5 1018.6 1018.8 2.8
24/02:00am 7.6 6.6 7.2 97 0.2 W 2 9 1 5 1018.6 1018.8 2.8
24/01:30am 7.7 6.7 7.3 97 0.2 NW 2 9 1 5 1018.5 1018.7 2.8
24/01:00am 7.9 6.6 7.5 97 0.2 WNW 4 13 2 7 1018.7 1018.9 2.8
24/12:30am 8.2 7.3 7.8 97 0.2 W 2 6 1 3 1018.9 1019.0 2.8
24/12:00am 8.2 6.9 7.8 97 0.2 WSW 4 6 2 3 1019.0 1019.1 2.8
 
Date/Time
EST
Tmp

°C
App
Tmp
°C
Dew
Point
°C
Rel
Hum
%
Delta-T

°C
Wind Press
QNH
hPa
Press
MSL
hPa
Rain
since
9 am
mm
Dir
 
Spd
km/h
Gust
km/h
Spd
kts
Gust
kts
23/11:30pm 8.1 7.2 7.7 97 0.2 W 2 6 1 3 1018.9 1019.0 2.8
23/11:00pm 8.1 6.8 7.7 97 0.2 W 4 7 2 4 1019.0 1019.1 2.8
23/10:30pm 8.0 7.1 7.6 97 0.2 W 2 6 1 3 1018.9 1019.0 2.6
23/10:00pm 7.9 6.9 7.3 96 0.3 WNW 2 7 1 4 1018.9 1019.0 2.6
23/09:30pm 8.0 7.0 7.4 96 0.3 NW 2 4 1 2 1019.0 1019.1 2.6
23/09:00pm 7.9 6.5 7.3 96 0.3 WNW 4 9 2 5 1018.7 1018.9 2.6
23/08:30pm 7.9 6.5 7.1 95 0.4 WNW 4 7 2 4 1018.6 1018.8 2.6
23/08:00pm 7.8 6.3 6.9 94 0.4 W 4 6 2 3 1018.6 1018.8 2.6
23/07:30pm 7.8 6.3 6.9 94 0.4 W 4 6 2 3 1018.6 1018.8 1.8
23/07:00pm 7.9 6.8 7.0 94 0.4 NW 2 6 1 3 1018.6 1018.8 1.2
23/06:30pm 7.9 6.8 6.8 93 0.5 W 2 6 1 3 1018.2 1018.3 0.8
23/06:00pm 7.9 6.3 6.5 91 0.7 WSW 4 9 2 5 1018.0 1018.1 0.2
23/05:30pm 8.1 6.4 6.1 87 0.9 W 4 9 2 5 1017.7 1017.8 0.0
23/05:00pm 8.2 6.1 6.0 86 1.0 W 6 13 3 7 1017.6 1017.7 0.0
23/04:30pm 8.5 6.5 6.1 85 1.1 WSW 6 15 3 8 1017.6 1017.7 0.0
23/04:00pm 9.9 7.5 4.1 67 2.6 WSW 6 20 3 11 1017.3 1017.4 0.0
23/03:30pm 10.5 8.4 3.8 63 3.0 WSW 4 9 2 5 1017.2 1017.3 0.0
23/03:00pm 10.9 8.4 3.9 62 3.2 WSW 6 19 3 10 1017.0 1017.1 0.0
23/02:30pm 11.7 9.3 4.4 61 3.4 WSW 6 13 3 7 1017.0 1017.1 0.0
23/02:00pm 11.6 9.1 4.6 62 3.3 W 7 17 4 9 1017.0 1017.1 0.0
23/01:30pm 10.9 8.2 3.9 62 3.2 WSW 7 17 4 9 1017.2 1017.3 0.0
23/01:00pm 11.4 8.7 5.5 67 2.8 W 9 28 5 15 1017.2 1017.3 0.0

Latest Capital City Observations: Canberra | Sydney | Melbourne | Brisbane | Adelaide | Perth | Hobart | Darwin

Other Formats:

Comma delimited format used in spreadsheet applications
http://www.bom.gov.au/fwo/IDV60901/IDV60901.94872.axf

JavaScript Object Notation format (JSON) in row-major order
http://www.bom.gov.au/fwo/IDV60901/IDV60901.94872.json